East Orleans, MA (02643)

2:24 AM EDT on April 26, 2017 (GMT -0400)
Countryside Orleans | | Change Station

Elev 95 ft 41.79 °N, 69.94 °W | Updated 2 minutes ago

Overcast
Overcast
48.7 °F
Feels Like 49 °F
N
2.0
Wind Variable Wind from SE
Gusts 9.0 mph

Today
High -- | Low -- °F
--% Chance of Precip.
Yesterday
High -- | Low -- °F
Precip. -- in
Pressure 29.99 in
Visibility 0.5 miles
Clouds
Windchill 49 °F
Dew Point 48 °F
Humidity 98%
Rainfall 0.00 in
Snow Depth Not available.
5:42 AM 7:32 PM
Waning Crescent, 0% visible
METAR KCQX 260552Z AUTO 12010G18KT 1/2SM FG VV002 11/11 A2999 RMK AO2 RAE0454 SLP156 P0001 60003 T01060106 10111 20106 58022
Pressure 29.99 in
Visibility 0.5 miles
Clouds
Windchill 49 °F
Dew Point 48 °F
Humidity 98%
Rainfall 0.00 in
Snow Depth Not available.
5:42 AM 7:32 PM
Waning Crescent, 0% visible
METAR KCQX 260552Z AUTO 12010G18KT 1/2SM FG VV002 11/11 A2999 RMK AO2 RAE0454 SLP156 P0001 60003 T01060106 10111 20106 58022

Get Severe Weather Alerts

Thanks for signing up!

Be on the lookout for a verification email in your inbox.

You'll start receiving the daily forecast at 8 AM.

×

10-Day Weather Forecast

Almanac

Astronomy

Apr. 26, 2017 Rise Set
Actual Time
Civil Twilight
Nautical Twilight
Astronomical Twilight
Moon
Length of Visible Light
Length of Day
Tomorrow will be .
, % of the Moon is Illuminated

Today's Extremes

State Highs State Lows

Community

WunderPhotos

WunderBlog® & News

Nearby

Air Quality

  Air Quality AQ Index Pollutant
Not available.

Snow Depth

Station Depth Elevation

Earthquake Activity

City Distance Mag. Time & Date
Minimum magnitude displayed is 2.5.

Coastal Water Temperatures

Place Temperature

Stations

Nearby Weather Stations

Station Location Temp. Windchill Dew Point Humidity Wind Precip. Elev Updated Type
                   

Watches & Warnings

There are currently no watches in effect.